Terminal Aerodrome Forecast
Issued by NWS

Home | Current Version | Previous Version | Text Only | Print | Product List | Glossary On
Versions: 1 2 3 4 5 6 7 8 9 10 11 12 13 14 15 16 17 18 19 20 21 22
000
FTUS41 KGYX 250520
TAFHIE
TAF
KHIE 250520Z 2506/2606 36003KT P6SM SKC
     FM250900 12007KT P6SM FEW050 BKN100
     FM251500 12008G16KT P6SM BKN070 OVC100
     FM252100 13013G20KT P6SM -SHRA BKN045 OVC100
     FM260200 15014G21KT 4SM -RA BR OVC015=

USA.gov is the U.S. government's official web portal to all federal, state and local government web resources and services.